Time;durP1;ratioP1;P1;durP2;ratioP2;P2;SDS_P1;SDS_P2;PMS_P1;PMS_P2;Temp;Humidity;BMP_temperature;BMP_pressure;BME280_temperature;BME280_humidity;BME280_pressure;Samples;Min_cycle;Max_cycle;Signal;HPM_P1;HPM_P2
2024/03/04 00:01:58;;;;;;;20.83;13.90;;;;;;;;;;5093461;28;20040;-57
2024/03/04 00:04:25;;;;;;;21.70;15.07;;;;;;;;;;5093671;28;20052;-58
2024/03/04 00:06:51;;;;;;;20.67;14.40;;;;;;;;;;5093633;28;20048;-57
2024/03/04 00:09:18;;;;;;;23.42;15.77;;;;;;;;;;5092983;28;20056;-57
2024/03/04 00:11:45;;;;;;;22.65;15.32;;;;;;;;;;5092992;28;20044;-57
2024/03/04 00:14:12;;;;;;;24.88;17.27;;;;;;;;;;5094080;28;20134;-57
2024/03/04 00:16:41;;;;;;;27.95;19.05;;;;;;;;;;5091690;28;20066;-57
2024/03/04 00:19:09;;;;;;;28.65;18.98;;;;;;;;;;5092979;28;20048;-58
2024/03/04 00:21:37;;;;;;;22.33;17.23;;;;;;;;;;5093105;28;20485;-57
2024/03/04 00:24:06;;;;;;;27.98;19.38;;;;;;;;;;5093327;28;20416;-57
2024/03/04 00:26:33;;;;;;;29.05;20.08;;;;;;;;;;5093247;28;20052;-57
2024/03/04 00:29:00;;;;;;;25.92;18.83;;;;;;;;;;5093828;28;20451;-59
2024/03/04 00:31:27;;;;;;;28.23;20.42;;;;;;;;;;5093573;28;20499;-58
2024/03/04 00:33:53;;;;;;;29.27;18.40;;;;;;;;;;5093683;28;20052;-57
2024/03/04 00:36:24;;;;;;;27.15;19.83;;;;;;;;;;5093219;28;20051;-57
2024/03/04 00:38:52;;;;;;;26.40;20.13;;;;;;;;;;5093953;28;20339;-57
2024/03/04 00:41:22;;;;;;;29.20;20.83;;;;;;;;;;5092505;28;20055;-57
2024/03/04 00:43:49;;;;;;;27.63;20.92;;;;;;;;;;5093496;28;20059;-57
2024/03/04 00:46:16;;;;;;;29.00;20.30;;;;;;;;;;5092932;28;20497;-57
2024/03/04 00:48:44;;;;;;;28.98;20.63;;;;;;;;;;5093086;28;20407;-57
2024/03/04 00:51:11;;;;;;;30.95;23.10;;;;;;;;;;5093424;28;20051;-57
2024/03/04 00:53:40;;;;;;;33.60;24.20;;;;;;;;;;5093751;28;20051;-57
2024/03/04 00:56:07;;;;;;;37.47;25.55;;;;;;;;;;5093100;28;20051;-57
2024/03/04 00:58:34;;;;;;;36.88;26.90;;;;;;;;;;5093417;28;20052;-56
2024/03/04 01:01:01;;;;;;;37.80;26.95;;;;;;;;;;5092959;28;20060;-57
2024/03/04 01:03:28;;;;;;;41.33;29.10;;;;;;;;;;5093312;28;20058;-57
2024/03/04 01:05:55;;;;;;;36.63;28.00;;;;;;;;;;5092924;28;20064;-57
2024/03/04 01:08:21;;;;;;;43.03;31.63;;;;;;;;;;5093080;28;20052;-56
2024/03/04 01:10:49;;;;;;;44.58;32.97;;;;;;;;;;5092036;28;20048;-57
2024/03/04 01:13:19;;;;;;;50.50;35.63;;;;;;;;;;5092777;28;20052;-57
2024/03/04 01:15:47;;;;;;;49.78;36.60;;;;;;;;;;5093234;28;20059;-57
2024/03/04 01:18:14;;;;;;;54.92;39.47;;;;;;;;;;5092506;28;20047;-56
2024/03/04 01:20:41;;;;;;;54.47;41.33;;;;;;;;;;5092387;28;20052;-56
2024/03/04 01:23:08;;;;;;;63.67;44.03;;;;;;;;;;5092636;28;20052;-57
2024/03/04 01:25:35;;;;;;;61.95;43.95;;;;;;;;;;5091640;28;20052;-58
2024/03/04 01:28:04;;;;;;;60.50;42.95;;;;;;;;;;5092383;28;20055;-58
2024/03/04 01:30:31;;;;;;;63.28;43.22;;;;;;;;;;5090339;28;20064;-58
2024/03/04 01:32:59;;;;;;;65.40;44.90;;;;;;;;;;5092499;28;20048;-58
2024/03/04 01:35:26;;;;;;;66.50;46.58;;;;;;;;;;5092603;28;20525;-58
2024/03/04 01:37:53;;;;;;;68.22;47.10;;;;;;;;;;5092699;28;20118;-58
2024/03/04 01:40:20;;;;;;;65.53;46.75;;;;;;;;;;5091040;28;20052;-58
2024/03/04 01:42:46;;;;;;;71.97;47.33;;;;;;;;;;5092432;28;20052;-58
2024/03/04 01:45:24;;;;;;;71.97;50.08;;;;;;;;;;5092223;28;20051;-58
2024/03/04 01:47:52;;;;;;;66.05;47.17;;;;;;;;;;5092394;28;20056;-58
2024/03/04 01:50:19;;;;;;;68.78;48.28;;;;;;;;;;5092522;28;20063;-58
2024/03/04 01:52:47;;;;;;;70.32;48.50;;;;;;;;;;5092394;28;20059;-58
2024/03/04 01:55:14;;;;;;;71.05;49.42;;;;;;;;;;5091993;28;20056;-58
2024/03/04 01:57:41;;;;;;;70.82;47.88;;;;;;;;;;5092292;28;20063;-57
2024/03/04 02:00:11;;;;;;;71.00;50.60;;;;;;;;;;5092315;28;20052;-57
2024/03/04 02:02:38;;;;;;;;;;;;;;;;;;5092688;28;20048;-57
2024/03/04 02:05:09;;;;;;;71.47;47.05;;;;;;;;;;5092727;28;19927;-56
2024/03/04 02:07:38;;;;;;;73.20;50.38;;;;;;;;;;5092360;28;20401;-57
2024/03/04 02:10:05;;;;;;;75.25;51.45;;;;;;;;;;5091589;28;20048;-57
2024/03/04 02:12:33;;;;;;;68.45;48.92;;;;;;;;;;5091356;28;20401;-57
2024/03/04 02:15:00;;;;;;;72.20;49.65;;;;;;;;;;5091821;28;20052;-57
2024/03/04 02:17:27;;;;;;;70.13;48.47;;;;;;;;;;5091778;28;20059;-57
2024/03/04 02:19:54;;;;;;;71.97;49.22;;;;;;;;;;5091633;28;20056;-57
2024/03/04 02:22:27;;;;;;;72.72;49.22;;;;;;;;;;5092156;28;20062;-57
2024/03/04 02:24:53;;;;;;;69.15;49.58;;;;;;;;;;5092062;28;20048;-58
2024/03/04 02:27:20;;;;;;;67.10;47.00;;;;;;;;;;5091336;28;20052;-58
2024/03/04 02:29:48;;;;;;;67.32;48.55;;;;;;;;;;5091882;28;20052;-57
2024/03/04 02:32:16;;;;;;;70.70;47.95;;;;;;;;;;5091743;28;20059;-57
2024/03/04 02:34:42;;;;;;;71.13;48.83;;;;;;;;;;5086529;28;20405;-57
2024/03/04 02:37:09;;;;;;;65.30;46.90;;;;;;;;;;5071750;28;20056;-55
2024/03/04 02:39:37;;;;;;;73.28;50.97;;;;;;;;;;5071450;28;20056;-57
2024/03/04 02:42:05;;;;;;;66.10;47.78;;;;;;;;;;5085016;28;20055;-57
2024/03/04 02:44:32;;;;;;;64.45;45.75;;;;;;;;;;5091681;28;20051;-57
2024/03/04 02:46:59;;;;;;;63.78;45.85;;;;;;;;;;5091974;28;20098;-57
2024/03/04 02:49:27;;;;;;;67.05;48.63;;;;;;;;;;5092359;28;20409;-57
2024/03/04 02:51:56;;;;;;;68.88;46.17;;;;;;;;;;5094932;28;20159;-57
2024/03/04 02:54:23;;;;;;;68.10;47.75;;;;;;;;;;5096127;28;20052;-57
2024/03/04 02:56:52;;;;;;;66.72;48.08;;;;;;;;;;5094870;28;20048;-57
2024/03/04 02:59:19;;;;;;;67.22;48.00;;;;;;;;;;5095671;28;20372;-57
2024/03/04 03:01:47;;;;;;;66.95;46.90;;;;;;;;;;5095508;28;20105;-57
2024/03/04 03:04:15;;;;;;;68.43;48.27;;;;;;;;;;5096115;28;20059;-57
2024/03/04 03:06:42;;;;;;;65.20;45.28;;;;;;;;;;5095463;28;20055;-57
2024/03/04 03:09:09;;;;;;;65.88;46.03;;;;;;;;;;5095397;28;20055;-57
2024/03/04 03:11:36;;;;;;;65.65;46.30;;;;;;;;;;5094390;28;20485;-57
2024/03/04 03:14:04;;;;;;;62.20;44.97;;;;;;;;;;5095426;28;20048;-57
2024/03/04 03:16:31;;;;;;;64.78;46.00;;;;;;;;;;5095138;28;20350;-57
2024/03/04 03:18:59;;;;;;;65.28;45.83;;;;;;;;;;5094956;28;20092;-57
2024/03/04 03:21:27;;;;;;;70.78;46.22;;;;;;;;;;5094924;28;20052;-57
2024/03/04 03:23:54;;;;;;;64.10;44.70;;;;;;;;;;5095112;28;20044;-57
2024/03/04 03:26:22;;;;;;;64.85;44.38;;;;;;;;;;5094149;28;20048;-57
2024/03/04 03:28:49;;;;;;;66.28;46.08;;;;;;;;;;5094941;28;20063;-57
2024/03/04 03:31:19;;;;;;;66.45;44.97;;;;;;;;;;5094996;28;20056;-57
2024/03/04 03:33:45;;;;;;;;;;;;;;;;;;5095538;28;20071;-57
2024/03/04 03:36:12;;;;;;;62.95;42.08;;;;;;;;;;5094788;28;19920;-57
2024/03/04 03:38:39;;;;;;;68.55;44.53;;;;;;;;;;5094885;28;20056;-57
2024/03/04 03:41:07;;;;;;;66.05;45.53;;;;;;;;;;5093869;28;20059;-57
2024/03/04 03:43:33;;;;;;;65.72;45.55;;;;;;;;;;5094694;28;20055;-57
2024/03/04 03:46:01;;;;;;;64.43;43.90;;;;;;;;;;5094637;28;20511;-57
2024/03/04 03:48:29;;;;;;;60.58;42.25;;;;;;;;;;5074569;28;20064;-57
2024/03/04 03:50:56;;;;;;;62.92;43.42;;;;;;;;;;5074127;28;20056;-57
2024/03/04 03:53:25;;;;;;;65.70;43.05;;;;;;;;;;5074194;28;20055;-57
2024/03/04 03:55:52;;;;;;;66.40;44.60;;;;;;;;;;5075154;28;20057;-56
2024/03/04 03:58:18;;;;;;;60.97;41.50;;;;;;;;;;5093265;28;20409;-56
2024/03/04 04:00:45;;;;;;;60.80;41.33;;;;;;;;;;5093708;28;20508;-56
2024/03/04 04:03:12;;;;;;;60.55;41.95;;;;;;;;;;5093664;28;20044;-57
2024/03/04 04:05:40;;;;;;;61.13;41.63;;;;;;;;;;5094301;28;20508;-57
2024/03/04 04:08:07;;;;;;;56.33;38.22;;;;;;;;;;5094403;28;20056;-57
2024/03/04 04:10:34;;;;;;;68.10;45.00;;;;;;;;;;5093648;28;20059;-57
2024/03/04 04:13:01;;;;;;;62.38;41.25;;;;;;;;;;5093465;28;20427;-57
2024/03/04 04:15:28;;;;;;;64.50;42.50;;;;;;;;;;5093592;28;20060;-57
2024/03/04 04:17:55;;;;;;;56.20;40.17;;;;;;;;;;5093513;28;20056;-57
2024/03/04 04:20:22;;;;;;;63.45;42.50;;;;;;;;;;5093756;28;20059;-56
2024/03/04 04:22:50;;;;;;;63.40;40.75;;;;;;;;;;5093461;28;20048;-57
2024/03/04 04:25:17;;;;;;;58.78;39.92;;;;;;;;;;5093430;28;20051;-57
2024/03/04 04:27:43;;;;;;;59.70;40.38;;;;;;;;;;5092815;28;20048;-57
2024/03/04 04:30:11;;;;;;;64.90;43.03;;;;;;;;;;5093871;28;20059;-57
2024/03/04 04:32:38;;;;;;;61.22;41.28;;;;;;;;;;5093557;28;20048;-57
2024/03/04 04:35:05;;;;;;;58.85;40.20;;;;;;;;;;5093282;28;20043;-57
2024/03/04 04:37:32;;;;;;;63.70;41.05;;;;;;;;;;5093631;28;20063;-57
2024/03/04 04:40:00;;;;;;;56.35;38.65;;;;;;;;;;5093196;28;20056;-58
2024/03/04 04:42:27;;;;;;;65.20;42.85;;;;;;;;;;5092632;28;20047;-57
2024/03/04 04:44:54;;;;;;;61.25;40.22;;;;;;;;;;5093073;28;20063;-58
2024/03/04 04:47:22;;;;;;;62.95;40.55;;;;;;;;;;5093150;28;20056;-58
2024/03/04 04:49:49;;;;;;;56.72;38.95;;;;;;;;;;5093092;28;20516;-57
2024/03/04 04:52:16;;;;;;;61.55;40.60;;;;;;;;;;5072855;28;20053;-57
2024/03/04 04:54:44;;;;;;;66.28;44.85;;;;;;;;;;5072737;28;20052;-57
2024/03/04 04:57:12;;;;;;;63.75;40.63;;;;;;;;;;5080687;28;20044;-57
2024/03/04 04:59:39;;;;;;;64.95;40.53;;;;;;;;;;5093120;28;20493;-58
2024/03/04 05:02:06;;;;;;;58.45;39.35;;;;;;;;;;5093073;28;20048;-58
2024/03/04 05:04:32;;;;;;;63.60;39.33;;;;;;;;;;5093075;28;20048;-58
2024/03/04 05:07:00;;;;;;;64.70;42.30;;;;;;;;;;5092807;28;20052;-58
2024/03/04 05:09:27;;;;;;;60.80;41.72;;;;;;;;;;5093295;28;20508;-57
2024/03/04 05:11:54;;;;;;;64.10;41.03;;;;;;;;;;5091961;28;20051;-57
2024/03/04 05:14:22;;;;;;;63.20;40.72;;;;;;;;;;5091497;28;20059;-58
2024/03/04 05:16:49;;;;;;;62.45;40.05;;;;;;;;;;5092609;28;20071;-57
2024/03/04 05:19:16;;;;;;;57.22;37.92;;;;;;;;;;5092176;28;20055;-58
2024/03/04 05:21:44;;;;;;;57.60;38.65;;;;;;;;;;5092708;28;20052;-57
2024/03/04 05:24:11;;;;;;;58.05;38.30;;;;;;;;;;5092877;28;20481;-57
2024/03/04 05:26:37;;;;;;;55.58;38.20;;;;;;;;;;5091724;28;20079;-57
2024/03/04 05:29:05;;;;;;;58.65;38.90;;;;;;;;;;5091423;28;20044;-57
2024/03/04 05:31:33;;;;;;;55.65;37.90;;;;;;;;;;5092363;28;20408;-57
2024/03/04 05:34:00;;;;;;;60.92;40.65;;;;;;;;;;5092757;28;20400;-58
2024/03/04 05:36:27;;;;;;;58.35;38.55;;;;;;;;;;5092667;28;20052;-58
2024/03/04 05:38:54;;;;;;;63.63;38.83;;;;;;;;;;5092777;28;20052;-57
2024/03/04 05:41:20;;;;;;;60.55;40.60;;;;;;;;;;5092638;28;20067;-57
2024/03/04 05:43:47;;;;;;;58.85;38.30;;;;;;;;;;5090435;28;20051;-57
2024/03/04 05:46:14;;;;;;;58.92;39.20;;;;;;;;;;5089267;28;20056;-58
2024/03/04 05:48:45;;;;;;;57.38;37.15;;;;;;;;;;5092384;28;20059;-57
2024/03/04 05:51:12;;;;;;;60.72;37.95;;;;;;;;;;5092308;28;20048;-57
2024/03/04 05:53:39;;;;;;;58.63;37.45;;;;;;;;;;5092116;28;20389;-58
2024/03/04 05:56:06;;;;;;;59.90;37.33;;;;;;;;;;5092422;28;20048;-57
2024/03/04 05:58:33;;;;;;;59.33;38.95;;;;;;;;;;5092124;28;20051;-58
2024/03/04 06:01:00;;;;;;;64.22;37.97;;;;;;;;;;5089496;28;20048;-57
2024/03/04 06:03:27;;;;;;;59.60;37.78;;;;;;;;;;5080014;28;20425;-57
2024/03/04 06:05:55;;;;;;;58.63;37.65;;;;;;;;;;5090523;28;20055;-58
2024/03/04 06:08:22;;;;;;;58.80;37.15;;;;;;;;;;5091372;28;20062;-57
2024/03/04 06:10:48;;;;;;;60.33;36.70;;;;;;;;;;5092016;28;20059;-58
2024/03/04 06:13:15;;;;;;;56.35;36.88;;;;;;;;;;5091389;28;20055;-58
2024/03/04 06:15:42;;;;;;;57.47;37.33;;;;;;;;;;5092165;28;20063;-57
2024/03/04 06:18:09;;;;;;;61.10;37.38;;;;;;;;;;5091179;28;20060;-58
2024/03/04 06:20:36;;;;;;;58.70;37.60;;;;;;;;;;5091373;28;20059;-57
2024/03/04 06:23:04;;;;;;;59.50;38.03;;;;;;;;;;5090205;28;20080;-57
2024/03/04 06:25:31;;;;;;;53.58;35.83;;;;;;;;;;5091092;28;20512;-57
2024/03/04 06:28:00;;;;;;;54.42;35.35;;;;;;;;;;5095439;28;20400;-58
2024/03/04 06:30:27;;;;;;;55.65;36.17;;;;;;;;;;5095522;28;20509;-57
2024/03/04 06:32:55;;;;;;;52.35;33.95;;;;;;;;;;5090453;28;20044;-57
2024/03/04 06:35:21;;;;;;;54.53;35.58;;;;;;;;;;5092382;28;20048;-57
2024/03/04 06:37:50;;;;;;;55.95;35.25;;;;;;;;;;5094383;28;20063;-57
2024/03/04 06:40:18;;;;;;;55.10;34.90;;;;;;;;;;5092253;28;20059;-57
2024/03/04 06:42:45;;;;;;;54.90;34.22;;;;;;;;;;5092935;28;20048;-57
2024/03/04 06:45:12;;;;;;;50.70;34.38;;;;;;;;;;5094088;28;20063;-57
2024/03/04 06:47:39;;;;;;;54.55;35.42;;;;;;;;;;5094450;28;20059;-57
2024/03/04 06:50:06;;;;;;;55.83;35.72;;;;;;;;;;5095091;28;20409;-57
2024/03/04 06:52:33;;;;;;;54.33;33.38;;;;;;;;;;5095198;28;20052;-57
2024/03/04 06:55:00;;;;;;;52.53;34.67;;;;;;;;;;5094787;28;20244;-57
2024/03/04 06:57:28;;;;;;;51.60;33.28;;;;;;;;;;5094448;28;20500;-57
2024/03/04 06:59:55;;;;;;;50.45;33.28;;;;;;;;;;5094029;28;20048;-58
2024/03/04 07:02:22;;;;;;;53.08;32.65;;;;;;;;;;5092331;28;20056;-57
2024/03/04 07:04:49;;;;;;;47.63;32.42;;;;;;;;;;5094505;28;20055;-58
2024/03/04 07:07:15;;;;;;;54.22;32.83;;;;;;;;;;5094373;28;20052;-58
2024/03/04 07:09:42;;;;;;;55.28;34.10;;;;;;;;;;5095019;28;20412;-57
2024/03/04 07:12:09;;;;;;;50.35;32.17;;;;;;;;;;5094271;28;20412;-57
2024/03/04 07:14:38;;;;;;;53.33;33.05;;;;;;;;;;5093482;28;20146;-58
2024/03/04 07:17:05;;;;;;;49.25;31.27;;;;;;;;;;5094427;28;20412;-58
2024/03/04 07:19:31;;;;;;;52.70;32.50;;;;;;;;;;5094596;28;20056;-57
2024/03/04 07:21:58;;;;;;;43.78;29.77;;;;;;;;;;5094845;28;20402;-56
2024/03/04 07:24:25;;;;;;;47.50;30.52;;;;;;;;;;5094908;28;20058;-56
2024/03/04 07:26:52;;;;;;;47.83;30.65;;;;;;;;;;5093580;28;20481;-57
2024/03/04 07:29:19;;;;;;;49.10;31.02;;;;;;;;;;5094553;28;20063;-57
2024/03/04 07:31:47;;;;;;;51.70;31.23;;;;;;;;;;5091901;28;20071;-57
2024/03/04 07:34:13;;;;;;;50.15;32.38;;;;;;;;;;5095190;28;20052;-57
2024/03/04 07:36:40;;;;;;;52.63;31.67;;;;;;;;;;5091873;28;20055;-57
2024/03/04 07:39:07;;;;;;;50.90;33.83;;;;;;;;;;5094268;28;20055;-57
2024/03/04 07:41:34;;;;;;;47.33;31.42;;;;;;;;;;5093323;28;20060;-56
2024/03/04 07:44:01;;;;;;;50.35;33.28;;;;;;;;;;5092604;28;20055;-58
2024/03/04 07:46:28;;;;;;;55.05;33.28;;;;;;;;;;5092182;28;20055;-58
2024/03/04 07:48:56;;;;;;;55.97;33.75;;;;;;;;;;5090327;28;20052;-58
2024/03/04 07:51:23;;;;;;;51.85;33.72;;;;;;;;;;5084740;28;20052;-58
2024/03/04 07:53:49;;;;;;;51.70;33.63;;;;;;;;;;5091282;28;20063;-57
2024/03/04 07:56:16;;;;;;;61.45;37.30;;;;;;;;;;5090254;28;20047;-57
2024/03/04 07:58:43;;;;;;;51.53;34.10;;;;;;;;;;5090123;28;20063;-58
2024/03/04 08:01:11;;;;;;;55.60;34.03;;;;;;;;;;5091963;28;20067;-57
2024/03/04 08:03:38;;;;;;;49.75;32.85;;;;;;;;;;5089268;28;20055;-57
2024/03/04 08:06:06;;;;;;;55.17;33.85;;;;;;;;;;5092005;28;20048;-57
2024/03/04 08:08:33;;;;;;;56.17;34.92;;;;;;;;;;5091230;28;20576;-57
2024/03/04 08:11:00;;;;;;;52.15;34.28;;;;;;;;;;5090667;28;20059;-57
2024/03/04 08:13:27;;;;;;;53.70;34.10;;;;;;;;;;5091074;28;20543;-56
2024/03/04 08:15:54;;;;;;;58.53;33.97;;;;;;;;;;5091285;28;20413;-57
2024/03/04 08:18:20;;;;;;;56.65;33.90;;;;;;;;;;5090047;28;20063;-57
2024/03/04 08:20:52;;;;;;;55.22;34.83;;;;;;;;;;5091030;28;20503;-57
2024/03/04 08:23:20;;;;;;;53.33;33.90;;;;;;;;;;5090767;28;20067;-57
2024/03/04 08:25:47;;;;;;;59.60;36.08;;;;;;;;;;5090906;28;20413;-57
2024/03/04 08:28:14;;;;;;;59.60;35.10;;;;;;;;;;5090962;28;20051;-58
2024/03/04 08:30:40;;;;;;;58.42;34.22;;;;;;;;;;5089953;28;20048;-57
2024/03/04 08:33:07;;;;;;;61.25;37.05;;;;;;;;;;5090971;28;20397;-57
2024/03/04 08:35:34;;;;;;;58.88;35.17;;;;;;;;;;5091404;28;20059;-57
2024/03/04 08:38:01;;;;;;;62.10;38.22;;;;;;;;;;5091029;28;20401;-58
2024/03/04 08:40:31;;;;;;;57.47;36.35;;;;;;;;;;5081146;28;20056;-58
2024/03/04 08:42:59;;;;;;;60.78;36.55;;;;;;;;;;5089671;28;20052;-57
2024/03/04 08:45:26;;;;;;;59.55;37.03;;;;;;;;;;5089823;28;20059;-57
2024/03/04 08:47:53;;;;;;;55.70;34.75;;;;;;;;;;5091399;28;20056;-57
2024/03/04 08:50:19;;;;;;;56.97;36.50;;;;;;;;;;5088663;28;20063;-56
2024/03/04 08:52:46;;;;;;;61.03;36.00;;;;;;;;;;5090929;28;20463;-58
2024/03/04 08:55:13;;;;;;;59.90;37.13;;;;;;;;;;5088306;28;20060;-58
2024/03/04 08:57:41;;;;;;;64.68;37.20;;;;;;;;;;5084378;28;20048;-59
2024/03/04 09:00:10;;;;;;;59.75;37.10;;;;;;;;;;5087538;28;20515;-57
2024/03/04 09:02:37;;;;;;;59.78;36.38;;;;;;;;;;5090686;28;20063;-58
2024/03/04 09:05:04;;;;;;;61.25;36.08;;;;;;;;;;5089885;28;20040;-58
2024/03/04 09:07:31;;;;;;;57.83;37.47;;;;;;;;;;5083326;28;20481;-58
2024/03/04 09:10:00;;;;;;;61.22;39.05;;;;;;;;;;5087361;28;20480;-57
2024/03/04 09:12:27;;;;;;;59.90;36.38;;;;;;;;;;5089864;28;20496;-58
2024/03/04 09:14:55;;;;;;;65.22;38.25;;;;;;;;;;5089736;28;20056;-58
2024/03/04 09:17:22;;;;;;;68.47;40.15;;;;;;;;;;5074891;28;20085;-58
2024/03/04 09:19:49;;;;;;;67.75;38.65;;;;;;;;;;5078013;28;20055;-57
2024/03/04 09:22:16;;;;;;;64.22;38.60;;;;;;;;;;5090696;28;20435;-58
2024/03/04 09:24:43;;;;;;;60.08;38.13;;;;;;;;;;5089475;28;20075;-58
2024/03/04 09:27:11;;;;;;;65.25;39.03;;;;;;;;;;5089272;28;20056;-58
2024/03/04 09:29:37;;;;;;;68.40;38.58;;;;;;;;;;5090198;28;20067;-58
2024/03/04 09:32:06;;;;;;;65.55;40.22;;;;;;;;;;5086687;28;20048;-57
2024/03/04 09:34:33;;;;;;;62.95;37.92;;;;;;;;;;5090187;28;20067;-58
2024/03/04 09:37:01;;;;;;;61.53;38.05;;;;;;;;;;5089475;28;20059;-58
2024/03/04 09:39:28;;;;;;;61.10;37.47;;;;;;;;;;5090840;28;20060;-58
2024/03/04 09:41:55;;;;;;;66.88;37.83;;;;;;;;;;5089633;28;20147;-58
2024/03/04 09:44:24;;;;;;;62.75;39.03;;;;;;;;;;5089423;28;20047;-57
2024/03/04 09:46:52;;;;;;;61.03;36.00;;;;;;;;;;5089713;28;20051;-58
2024/03/04 09:49:20;;;;;;;59.22;36.83;;;;;;;;;;5090633;28;20063;-58
2024/03/04 09:51:49;;;;;;;57.63;36.25;;;;;;;;;;5088996;28;20485;-58
2024/03/04 09:54:15;;;;;;;63.33;36.45;;;;;;;;;;5089116;28;20048;-58
2024/03/04 09:56:42;;;;;;;64.80;39.00;;;;;;;;;;5089822;28;20052;-58
2024/03/04 09:59:09;;;;;;;63.10;39.00;;;;;;;;;;5089520;28;20055;-58
2024/03/04 10:01:37;;;;;;;67.15;36.65;;;;;;;;;;5087353;28;20051;-58
2024/03/04 10:04:04;;;;;;;58.08;35.92;;;;;;;;;;5092245;28;20052;-58
2024/03/04 10:06:32;;;;;;;59.90;36.50;;;;;;;;;;5088101;28;20055;-58
2024/03/04 10:08:59;;;;;;;56.30;33.90;;;;;;;;;;5074490;28;20053;-58
2024/03/04 10:11:26;;;;;;;55.70;34.67;;;;;;;;;;5077948;28;20060;-58
2024/03/04 10:13:53;;;;;;;59.63;33.80;;;;;;;;;;5093346;28;20048;-57
2024/03/04 10:16:20;;;;;;;59.03;35.58;;;;;;;;;;5092641;28;20051;-59
2024/03/04 10:18:57;;;;;;;53.67;33.95;;;;;;;;;;5073704;28;20060;-58
2024/03/04 10:21:24;;;;;;;52.10;34.72;;;;;;;;;;5074725;28;20060;-58
2024/03/04 10:23:52;;;;;;;55.72;35.33;;;;;;;;;;5093623;28;20052;-58
2024/03/04 10:26:20;;;;;;;52.83;35.65;;;;;;;;;;5094417;28;20405;-58
2024/03/04 10:28:47;;;;;;;52.20;34.15;;;;;;;;;;5093032;28;20048;-58
2024/03/04 10:31:15;;;;;;;53.55;34.58;;;;;;;;;;5090649;28;20316;-57
2024/03/04 10:33:42;;;;;;;53.25;33.78;;;;;;;;;;5090855;28;20059;-58
2024/03/04 10:36:18;;;;;;;49.70;32.85;;;;;;;;;;5093551;28;20485;-58
2024/03/04 10:38:46;;;;;;;50.53;33.17;;;;;;;;;;5093115;28;20062;-57
2024/03/04 10:41:23;;;;;;;49.78;32.95;;;;;;;;;;5093489;28;20071;-57
2024/03/04 10:43:51;;;;;;;48.80;33.83;;;;;;;;;;5093440;28;20055;-57
2024/03/04 10:46:19;;;;;;;45.85;33.30;;;;;;;;;;5094164;28;20074;-58
2024/03/04 10:48:46;;;;;;;50.45;33.35;;;;;;;;;;5094038;28;20056;-57
2024/03/04 10:51:14;;;;;;;50.75;35.22;;;;;;;;;;5094257;28;20056;-57
2024/03/04 10:53:41;;;;;;;46.15;32.88;;;;;;;;;;5093445;28;20051;-57
2024/03/04 10:56:08;;;;;;;46.20;31.85;;;;;;;;;;5093053;28;20492;-57
2024/03/04 10:58:38;;;;;;;48.13;31.95;;;;;;;;;;5092924;28;20063;-58
2024/03/04 11:01:05;;;;;;;;;;;;;;;;;;5094178;28;20060;-57
2024/03/04 11:03:33;;;;;;;49.50;31.20;;;;;;;;;;5093570;28;19924;-58
2024/03/04 11:06:00;;;;;;;44.95;31.02;;;;;;;;;;5092821;28;20043;-57
2024/03/04 11:08:31;;;;;;;45.10;31.25;;;;;;;;;;5083647;28;20058;-58
2024/03/04 11:11:01;;;;;;;42.97;29.40;;;;;;;;;;5092172;28;20047;-58
2024/03/04 11:13:33;;;;;;;49.00;31.60;;;;;;;;;;5088446;28;20051;-58
2024/03/04 11:16:04;;;;;;;43.65;31.98;;;;;;;;;;5091386;28;20079;-58
2024/03/04 11:18:37;;;;;;;46.65;31.73;;;;;;;;;;5088722;28;20059;-58
2024/03/04 11:21:04;;;;;;;45.25;31.73;;;;;;;;;;5085919;28;20413;-59
2024/03/04 11:23:32;;;;;;;44.50;31.35;;;;;;;;;;5085423;28;20878;-58
2024/03/04 11:25:59;;;;;;;50.60;31.48;;;;;;;;;;5083684;28;20055;-58
2024/03/04 11:28:26;;;;;;;43.40;31.33;;;;;;;;;;5086233;28;20438;-58
2024/03/04 11:30:54;;;;;;;42.08;31.48;;;;;;;;;;5085701;28;20416;-58
2024/03/04 11:33:38;;;;;;;46.80;32.17;;;;;;;;;;5086467;28;20554;-58
2024/03/04 11:36:05;;;;;;;43.42;30.42;;;;;;;;;;5085165;28;20048;-58
2024/03/04 11:38:39;;;;;;;47.00;32.33;;;;;;;;;;5085259;28;20405;-59
2024/03/04 11:41:05;;;;;;;39.03;28.77;;;;;;;;;;5085954;28;20052;-58
2024/03/04 11:43:41;;;;;;;40.83;29.33;;;;;;;;;;5085409;28;20508;-58
2024/03/04 11:46:10;;;;;;;40.53;28.02;;;;;;;;;;5085623;28;20051;-57
2024/03/04 11:48:39;;;;;;;37.67;27.88;;;;;;;;;;5085240;28;20063;-58
2024/03/04 11:51:06;;;;;;;41.67;29.07;;;;;;;;;;5084880;28;20055;-57
2024/03/04 11:53:33;;;;;;;38.90;28.20;;;;;;;;;;5084359;28;20083;-59
2024/03/04 11:56:00;;;;;;;39.53;28.58;;;;;;;;;;5084640;28;20051;-58
2024/03/04 11:58:27;;;;;;;41.08;27.40;;;;;;;;;;5084452;28;20059;-58
2024/03/04 12:00:56;;;;;;;40.55;29.23;;;;;;;;;;5082686;28;20052;-57
2024/03/04 12:03:22;;;;;;;40.10;29.55;;;;;;;;;;5083016;28;20067;-57
2024/03/04 12:05:51;;;;;;;39.58;27.55;;;;;;;;;;5091943;28;20056;-58
2024/03/04 12:08:17;;;;;;;39.63;27.17;;;;;;;;;;5092539;28;20060;-57
2024/03/04 12:10:44;;;;;;;40.70;28.35;;;;;;;;;;5092067;28;20063;-59
2024/03/04 12:13:11;;;;;;;39.88;28.13;;;;;;;;;;5091764;28;20392;-58
2024/03/04 12:15:39;;;;;;;52.05;31.05;;;;;;;;;;5091921;28;20052;-58
2024/03/04 12:18:06;;;;;;;43.63;29.52;;;;;;;;;;5091566;28;20485;-58
2024/03/04 12:20:33;;;;;;;44.28;29.52;;;;;;;;;;5091360;28;20151;-58
2024/03/04 12:23:04;;;;;;;46.75;28.08;;;;;;;;;;5091346;28;20055;-58
2024/03/04 12:25:31;;;;;;;45.03;28.83;;;;;;;;;;5091852;28;20497;-58
2024/03/04 12:27:58;;;;;;;46.90;30.98;;;;;;;;;;5091419;28;20048;-58
2024/03/04 12:30:26;;;;;;;51.25;31.13;;;;;;;;;;5074148;28;20505;-57
2024/03/04 12:32:53;;;;;;;53.58;32.70;;;;;;;;;;5089180;28;20052;-59
2024/03/04 12:35:22;;;;;;;46.13;29.52;;;;;;;;;;5091611;28;20051;-58
2024/03/04 12:37:49;;;;;;;47.03;28.87;;;;;;;;;;5090621;28;20055;-58
2024/03/04 12:40:17;;;;;;;52.20;31.95;;;;;;;;;;5091109;28;20062;-58
2024/03/04 12:42:44;;;;;;;46.60;29.42;;;;;;;;;;5091015;28;20393;-58
2024/03/04 12:45:12;;;;;;;53.05;32.92;;;;;;;;;;5090883;28;20488;-57
2024/03/04 12:47:39;;;;;;;51.13;33.15;;;;;;;;;;5091233;28;20420;-58
2024/03/04 12:50:07;;;;;;;56.35;34.25;;;;;;;;;;5091753;28;20063;-59
2024/03/04 12:52:34;;;;;;;64.35;35.80;;;;;;;;;;5091029;28;20066;-58
2024/03/04 12:55:01;;;;;;;55.95;34.63;;;;;;;;;;5091472;28;20055;-58
2024/03/04 12:57:29;;;;;;;54.10;34.13;;;;;;;;;;5090601;28;20054;-57
2024/03/04 12:59:59;;;;;;;57.05;36.28;;;;;;;;;;5090794;28;20052;-58
2024/03/04 13:02:26;;;;;;;;;;;;;;;;;;5090851;28;20059;-58
2024/03/04 13:04:53;;;;;;;58.60;37.47;;;;;;;;;;5090319;28;19924;-58
2024/03/04 13:07:20;;;;;;;56.00;36.00;;;;;;;;;;5089637;28;20054;-57
2024/03/04 13:09:47;;;;;;;55.65;35.30;;;;;;;;;;5085967;28;20143;-59
2024/03/04 13:12:13;;;;;;;58.30;35.63;;;;;;;;;;5083266;28;20670;-58
2024/03/04 13:14:42;;;;;;;60.72;37.35;;;;;;;;;;5084031;28;20398;-59
2024/03/04 13:17:09;;;;;;;63.05;39.08;;;;;;;;;;5088908;28;20040;-59
2024/03/04 13:19:35;;;;;;;54.85;33.78;;;;;;;;;;5090664;28;20083;-58
2024/03/04 13:22:02;;;;;;;52.90;34.22;;;;;;;;;;5089211;28;20060;-58
2024/03/04 13:24:29;;;;;;;57.13;37.00;;;;;;;;;;5090137;28;20059;-58
2024/03/04 13:26:56;;;;;;;54.63;35.10;;;;;;;;;;5087504;28;20059;-58
2024/03/04 13:29:23;;;;;;;52.78;32.90;;;;;;;;;;5090744;28;20059;-59
2024/03/04 13:31:51;;;;;;;50.42;31.02;;;;;;;;;;5089696;28;20052;-58
2024/03/04 13:34:17;;;;;;;48.38;30.95;;;;;;;;;;5086576;28;20421;-58
2024/03/04 13:36:45;;;;;;;51.28;31.77;;;;;;;;;;5088732;28;20496;-58
2024/03/04 13:39:12;;;;;;;50.97;31.88;;;;;;;;;;5086757;28;20059;-58
2024/03/04 13:41:39;;;;;;;54.30;32.33;;;;;;;;;;5090121;28;20048;-57
2024/03/04 13:44:06;;;;;;;58.10;35.15;;;;;;;;;;5088386;28;20062;-58
2024/03/04 13:46:33;;;;;;;55.15;34.00;;;;;;;;;;5087663;28;20048;-58
2024/03/04 13:49:01;;;;;;;54.17;34.10;;;;;;;;;;5089497;28;20056;-58
2024/03/04 13:51:28;;;;;;;56.22;33.92;;;;;;;;;;5087295;28;20055;-58
2024/03/04 13:53:54;;;;;;;52.15;33.58;;;;;;;;;;5088529;28;20421;-58
2024/03/04 13:56:22;;;;;;;49.15;32.33;;;;;;;;;;5090282;28;20607;-57
2024/03/04 13:58:48;;;;;;;47.85;30.90;;;;;;;;;;5089370;28;20056;-59
2024/03/04 14:01:17;;;;;;;53.03;32.88;;;;;;;;;;5089286;28;20049;-58
2024/03/04 14:03:45;;;;;;;47.92;31.63;;;;;;;;;;5088987;28;20048;-58
2024/03/04 14:06:14;;;;;;;48.35;31.02;;;;;;;;;;5090656;28;20056;-58
2024/03/04 14:08:41;;;;;;;50.80;33.30;;;;;;;;;;5081765;28;20051;-59
2024/03/04 14:11:08;;;;;;;55.22;32.65;;;;;;;;;;5083646;28;20048;-57
2024/03/04 14:13:37;;;;;;;47.97;31.13;;;;;;;;;;5088835;28;20048;-58
2024/03/04 14:16:04;;;;;;;50.70;30.80;;;;;;;;;;5088324;28;20044;-58
2024/03/04 14:18:32;;;;;;;51.47;31.35;;;;;;;;;;5075540;28;20506;-57
2024/03/04 14:20:59;;;;;;;50.03;32.70;;;;;;;;;;5070725;28;20056;-58